sensor_id;sensor_type;location;lat;lon;timestamp;P1;durP1;ratioP1;P2;durP2;ratioP2
68229;SDS011;55048;52.220;5.160;2023-05-10T00:01:28;48.95;;;23.55;;
68229;SDS011;55048;52.220;5.160;2023-05-10T00:03:54;52.35;;;25.65;;
68229;SDS011;55048;52.220;5.160;2023-05-10T00:06:19;44.50;;;23.13;;
68229;SDS011;55048;52.220;5.160;2023-05-10T00:08:45;50.72;;;24.38;;
68229;SDS011;55048;52.220;5.160;2023-05-10T00:11:10;49.40;;;24.90;;
68229;SDS011;55048;52.220;5.160;2023-05-10T00:13:36;50.85;;;25.55;;
68229;SDS011;55048;52.220;5.160;2023-05-10T00:16:02;48.10;;;25.02;;
68229;SDS011;55048;52.220;5.160;2023-05-10T00:18:28;48.22;;;23.98;;
68229;SDS011;55048;52.220;5.160;2023-05-10T00:20:53;50.55;;;24.65;;
68229;SDS011;55048;52.220;5.160;2023-05-10T00:23:19;51.65;;;23.88;;
68229;SDS011;55048;52.220;5.160;2023-05-10T00:25:44;51.42;;;25.77;;
68229;SDS011;55048;52.220;5.160;2023-05-10T00:28:10;52.00;;;24.58;;
68229;SDS011;55048;52.220;5.160;2023-05-10T00:30:36;49.60;;;24.70;;
68229;SDS011;55048;52.220;5.160;2023-05-10T00:33:01;51.63;;;25.98;;
68229;SDS011;55048;52.220;5.160;2023-05-10T00:35:28;54.35;;;24.83;;
68229;SDS011;55048;52.220;5.160;2023-05-10T00:37:53;55.40;;;26.67;;
68229;SDS011;55048;52.220;5.160;2023-05-10T00:40:19;56.22;;;27.40;;
68229;SDS011;55048;52.220;5.160;2023-05-10T00:42:49;51.35;;;24.67;;
68229;SDS011;55048;52.220;5.160;2023-05-10T00:45:15;58.63;;;26.85;;
68229;SDS011;55048;52.220;5.160;2023-05-10T00:47:40;51.08;;;25.65;;
68229;SDS011;55048;52.220;5.160;2023-05-10T00:50:06;53.95;;;25.88;;
68229;SDS011;55048;52.220;5.160;2023-05-10T00:52:33;59.58;;;27.30;;
68229;SDS011;55048;52.220;5.160;2023-05-10T00:54:59;51.05;;;26.60;;
68229;SDS011;55048;52.220;5.160;2023-05-10T00:57:25;57.90;;;27.92;;
68229;SDS011;55048;52.220;5.160;2023-05-10T00:59:51;59.35;;;27.05;;
68229;SDS011;55048;52.220;5.160;2023-05-10T01:02:17;53.67;;;27.70;;
68229;SDS011;55048;52.220;5.160;2023-05-10T01:04:43;52.47;;;25.90;;
68229;SDS011;55048;52.220;5.160;2023-05-10T01:07:09;55.70;;;27.75;;
68229;SDS011;55048;52.220;5.160;2023-05-10T01:09:34;61.13;;;28.65;;
68229;SDS011;55048;52.220;5.160;2023-05-10T01:12:00;52.97;;;26.65;;
68229;SDS011;55048;52.220;5.160;2023-05-10T01:14:28;60.60;;;29.25;;
68229;SDS011;55048;52.220;5.160;2023-05-10T01:16:54;56.78;;;28.60;;
68229;SDS011;55048;52.220;5.160;2023-05-10T01:19:24;58.58;;;27.67;;
68229;SDS011;55048;52.220;5.160;2023-05-10T01:28:02;51.53;;;27.45;;
68229;SDS011;55048;52.220;5.160;2023-05-10T01:31:03;49.63;;;26.98;;
68229;SDS011;55048;52.220;5.160;2023-05-10T01:33:56;53.08;;;27.90;;
68229;SDS011;55048;52.220;5.160;2023-05-10T01:36:35;61.45;;;30.13;;
68229;SDS011;55048;52.220;5.160;2023-05-10T01:39:08;59.95;;;29.50;;
68229;SDS011;55048;52.220;5.160;2023-05-10T01:47:14;62.15;;;30.35;;
68229;SDS011;55048;52.220;5.160;2023-05-10T01:49:47;60.10;;;30.35;;
68229;SDS011;55048;52.220;5.160;2023-05-10T01:52:18;62.40;;;29.67;;
68229;SDS011;55048;52.220;5.160;2023-05-10T01:54:49;61.97;;;30.98;;
68229;SDS011;55048;52.220;5.160;2023-05-10T01:57:20;66.20;;;30.35;;
68229;SDS011;55048;52.220;5.160;2023-05-10T01:59:51;63.13;;;31.10;;
68229;SDS011;55048;52.220;5.160;2023-05-10T02:02:18;69.32;;;32.10;;
68229;SDS011;55048;52.220;5.160;2023-05-10T02:04:46;67.85;;;31.73;;
68229;SDS011;55048;52.220;5.160;2023-05-10T02:07:12;71.85;;;32.83;;
68229;SDS011;55048;52.220;5.160;2023-05-10T02:09:39;72.50;;;31.58;;
68229;SDS011;55048;52.220;5.160;2023-05-10T02:12:07;70.60;;;31.88;;
68229;SDS011;55048;52.220;5.160;2023-05-10T02:14:35;69.28;;;32.38;;
68229;SDS011;55048;52.220;5.160;2023-05-10T02:17:02;65.45;;;32.30;;
68229;SDS011;55048;52.220;5.160;2023-05-10T02:19:29;62.00;;;30.23;;
68229;SDS011;55048;52.220;5.160;2023-05-10T02:21:57;65.20;;;30.92;;
68229;SDS011;55048;52.220;5.160;2023-05-10T02:24:25;64.65;;;31.33;;
68229;SDS011;55048;52.220;5.160;2023-05-10T02:26:53;58.83;;;30.27;;
68229;SDS011;55048;52.220;5.160;2023-05-10T02:29:29;56.70;;;28.58;;
68229;SDS011;55048;52.220;5.160;2023-05-10T02:31:58;56.05;;;28.65;;
68229;SDS011;55048;52.220;5.160;2023-05-10T02:34:26;59.00;;;28.20;;
68229;SDS011;55048;52.220;5.160;2023-05-10T02:36:54;59.75;;;27.85;;
68229;SDS011;55048;52.220;5.160;2023-05-10T02:39:22;62.58;;;28.80;;
68229;SDS011;55048;52.220;5.160;2023-05-10T02:41:49;61.40;;;29.20;;
68229;SDS011;55048;52.220;5.160;2023-05-10T02:44:25;51.78;;;26.58;;
68229;SDS011;55048;52.220;5.160;2023-05-10T02:46:53;57.83;;;28.88;;
68229;SDS011;55048;52.220;5.160;2023-05-10T02:49:23;56.20;;;27.88;;
68229;SDS011;55048;52.220;5.160;2023-05-10T02:51:55;54.03;;;28.30;;
68229;SDS011;55048;52.220;5.160;2023-05-10T02:54:27;54.15;;;26.17;;
68229;SDS011;55048;52.220;5.160;2023-05-10T02:57:04;66.15;;;32.90;;
68229;SDS011;55048;52.220;5.160;2023-05-10T02:59:32;70.00;;;33.17;;
68229;SDS011;55048;52.220;5.160;2023-05-10T03:01:59;73.07;;;34.25;;
68229;SDS011;55048;52.220;5.160;2023-05-10T03:04:26;71.35;;;33.58;;
68229;SDS011;55048;52.220;5.160;2023-05-10T03:06:53;69.95;;;28.92;;
68229;SDS011;55048;52.220;5.160;2023-05-10T03:09:19;86.22;;;33.70;;
68229;SDS011;55048;52.220;5.160;2023-05-10T03:11:56;88.28;;;34.75;;
68229;SDS011;55048;52.220;5.160;2023-05-10T03:14:42;90.13;;;33.70;;
68229;SDS011;55048;52.220;5.160;2023-05-10T03:20:06;95.85;;;33.15;;
68229;SDS011;55048;52.220;5.160;2023-05-10T03:22:38;93.30;;;32.30;;
68229;SDS011;55048;52.220;5.160;2023-05-10T03:25:10;90.65;;;32.45;;
68229;SDS011;55048;52.220;5.160;2023-05-10T03:27:42;105.93;;;34.53;;
68229;SDS011;55048;52.220;5.160;2023-05-10T03:30:10;74.93;;;27.20;;
68229;SDS011;55048;52.220;5.160;2023-05-10T03:32:37;72.18;;;27.15;;
68229;SDS011;55048;52.220;5.160;2023-05-10T03:35:09;92.40;;;30.42;;
68229;SDS011;55048;52.220;5.160;2023-05-10T03:37:36;88.70;;;30.75;;
68229;SDS011;55048;52.220;5.160;2023-05-10T03:40:02;98.07;;;32.47;;
68229;SDS011;55048;52.220;5.160;2023-05-10T03:42:30;87.00;;;30.77;;
68229;SDS011;55048;52.220;5.160;2023-05-10T03:44:56;99.35;;;32.00;;
68229;SDS011;55048;52.220;5.160;2023-05-10T03:47:21;112.30;;;32.22;;
68229;SDS011;55048;52.220;5.160;2023-05-10T03:49:47;99.07;;;30.80;;
68229;SDS011;55048;52.220;5.160;2023-05-10T03:52:12;92.85;;;29.83;;
68229;SDS011;55048;52.220;5.160;2023-05-10T03:54:37;104.13;;;30.63;;
68229;SDS011;55048;52.220;5.160;2023-05-10T03:57:03;99.05;;;30.15;;
68229;SDS011;55048;52.220;5.160;2023-05-10T03:59:30;70.93;;;24.02;;
68229;SDS011;55048;52.220;5.160;2023-05-10T04:01:56;63.25;;;23.85;;
68229;SDS011;55048;52.220;5.160;2023-05-10T04:04:21;60.53;;;24.52;;
68229;SDS011;55048;52.220;5.160;2023-05-10T04:06:48;52.08;;;22.83;;
68229;SDS011;55048;52.220;5.160;2023-05-10T04:09:14;57.17;;;24.25;;
68229;SDS011;55048;52.220;5.160;2023-05-10T04:11:40;67.32;;;26.80;;
68229;SDS011;55048;52.220;5.160;2023-05-10T04:14:05;64.15;;;25.35;;
68229;SDS011;55048;52.220;5.160;2023-05-10T04:16:30;67.75;;;27.15;;
68229;SDS011;55048;52.220;5.160;2023-05-10T04:18:56;73.78;;;26.52;;
68229;SDS011;55048;52.220;5.160;2023-05-10T04:21:21;79.10;;;27.55;;
68229;SDS011;55048;52.220;5.160;2023-05-10T04:23:47;73.45;;;27.33;;
68229;SDS011;55048;52.220;5.160;2023-05-10T04:26:12;85.65;;;26.60;;
68229;SDS011;55048;52.220;5.160;2023-05-10T04:28:38;80.25;;;26.52;;
68229;SDS011;55048;52.220;5.160;2023-05-10T04:31:04;67.07;;;23.35;;
68229;SDS011;55048;52.220;5.160;2023-05-10T04:33:31;76.22;;;26.25;;
68229;SDS011;55048;52.220;5.160;2023-05-10T04:35:58;68.35;;;24.30;;
68229;SDS011;55048;52.220;5.160;2023-05-10T04:38:23;81.65;;;26.65;;
68229;SDS011;55048;52.220;5.160;2023-05-10T04:40:49;85.88;;;26.90;;
68229;SDS011;55048;52.220;5.160;2023-05-10T04:43:15;74.10;;;24.25;;
68229;SDS011;55048;52.220;5.160;2023-05-10T04:45:40;75.47;;;26.33;;
68229;SDS011;55048;52.220;5.160;2023-05-10T04:48:05;70.82;;;25.67;;
68229;SDS011;55048;52.220;5.160;2023-05-10T04:50:31;75.50;;;27.33;;
68229;SDS011;55048;52.220;5.160;2023-05-10T04:52:56;82.55;;;29.17;;
68229;SDS011;55048;52.220;5.160;2023-05-10T04:55:22;77.88;;;28.88;;
68229;SDS011;55048;52.220;5.160;2023-05-10T04:57:47;70.10;;;28.00;;
68229;SDS011;55048;52.220;5.160;2023-05-10T05:00:13;78.28;;;30.90;;
68229;SDS011;55048;52.220;5.160;2023-05-10T05:02:41;56.05;;;25.52;;
68229;SDS011;55048;52.220;5.160;2023-05-10T05:05:08;63.72;;;29.85;;
68229;SDS011;55048;52.220;5.160;2023-05-10T05:07:34;60.00;;;28.10;;
68229;SDS011;55048;52.220;5.160;2023-05-10T05:10:00;59.80;;;26.52;;
68229;SDS011;55048;52.220;5.160;2023-05-10T05:12:26;60.35;;;26.30;;
68229;SDS011;55048;52.220;5.160;2023-05-10T05:14:51;56.05;;;23.75;;
68229;SDS011;55048;52.220;5.160;2023-05-10T05:17:18;40.72;;;18.35;;
68229;SDS011;55048;52.220;5.160;2023-05-10T05:19:44;40.60;;;17.95;;
68229;SDS011;55048;52.220;5.160;2023-05-10T05:22:11;40.05;;;17.48;;
68229;SDS011;55048;52.220;5.160;2023-05-10T05:24:37;35.20;;;16.98;;
68229;SDS011;55048;52.220;5.160;2023-05-10T05:27:06;29.90;;;15.60;;
68229;SDS011;55048;52.220;5.160;2023-05-10T05:29:32;33.42;;;14.88;;
68229;SDS011;55048;52.220;5.160;2023-05-10T05:32:00;28.02;;;14.48;;
68229;SDS011;55048;52.220;5.160;2023-05-10T05:34:27;32.28;;;15.52;;
68229;SDS011;55048;52.220;5.160;2023-05-10T05:36:53;33.65;;;15.10;;
68229;SDS011;55048;52.220;5.160;2023-05-10T05:39:20;24.98;;;14.23;;
68229;SDS011;55048;52.220;5.160;2023-05-10T05:41:47;26.20;;;13.98;;
68229;SDS011;55048;52.220;5.160;2023-05-10T05:44:13;28.10;;;13.25;;
68229;SDS011;55048;52.220;5.160;2023-05-10T05:46:39;27.17;;;12.90;;
68229;SDS011;55048;52.220;5.160;2023-05-10T05:49:04;23.63;;;12.32;;
68229;SDS011;55048;52.220;5.160;2023-05-10T05:51:30;26.75;;;12.73;;
68229;SDS011;55048;52.220;5.160;2023-05-10T05:53:56;24.00;;;12.90;;
68229;SDS011;55048;52.220;5.160;2023-05-10T05:56:21;23.70;;;12.02;;
68229;SDS011;55048;52.220;5.160;2023-05-10T05:58:52;22.30;;;11.05;;
68229;SDS011;55048;52.220;5.160;2023-05-10T06:01:18;21.13;;;10.98;;
68229;SDS011;55048;52.220;5.160;2023-05-10T06:03:43;20.25;;;11.40;;
68229;SDS011;55048;52.220;5.160;2023-05-10T06:06:08;17.35;;;10.27;;
68229;SDS011;55048;52.220;5.160;2023-05-10T06:08:34;23.80;;;12.15;;
68229;SDS011;55048;52.220;5.160;2023-05-10T06:11:00;23.90;;;11.68;;
68229;SDS011;55048;52.220;5.160;2023-05-10T06:13:25;26.10;;;12.40;;
68229;SDS011;55048;52.220;5.160;2023-05-10T06:15:57;35.95;;;15.32;;
68229;SDS011;55048;52.220;5.160;2023-05-10T06:18:25;26.58;;;13.05;;
68229;SDS011;55048;52.220;5.160;2023-05-10T06:20:50;31.67;;;14.13;;
68229;SDS011;55048;52.220;5.160;2023-05-10T06:23:16;34.67;;;13.38;;
68229;SDS011;55048;52.220;5.160;2023-05-10T06:25:42;30.52;;;13.85;;
68229;SDS011;55048;52.220;5.160;2023-05-10T06:28:07;36.33;;;14.15;;
68229;SDS011;55048;52.220;5.160;2023-05-10T06:30:33;32.70;;;13.68;;
68229;SDS011;55048;52.220;5.160;2023-05-10T06:32:58;38.83;;;16.08;;
68229;SDS011;55048;52.220;5.160;2023-05-10T06:35:24;29.40;;;13.43;;
68229;SDS011;55048;52.220;5.160;2023-05-10T06:37:49;34.20;;;14.13;;
68229;SDS011;55048;52.220;5.160;2023-05-10T06:40:16;36.03;;;15.50;;
68229;SDS011;55048;52.220;5.160;2023-05-10T06:42:42;31.88;;;13.25;;
68229;SDS011;55048;52.220;5.160;2023-05-10T06:45:10;32.47;;;15.13;;
68229;SDS011;55048;52.220;5.160;2023-05-10T06:47:35;31.85;;;15.73;;
68229;SDS011;55048;52.220;5.160;2023-05-10T06:50:04;32.65;;;15.02;;
68229;SDS011;55048;52.220;5.160;2023-05-10T06:52:31;22.55;;;11.68;;
68229;SDS011;55048;52.220;5.160;2023-05-10T06:54:57;27.63;;;12.55;;
68229;SDS011;55048;52.220;5.160;2023-05-10T06:57:23;27.52;;;12.18;;
68229;SDS011;55048;52.220;5.160;2023-05-10T06:59:49;23.88;;;12.02;;
68229;SDS011;55048;52.220;5.160;2023-05-10T07:02:14;27.35;;;12.48;;
68229;SDS011;55048;52.220;5.160;2023-05-10T07:04:40;24.27;;;12.48;;
68229;SDS011;55048;52.220;5.160;2023-05-10T07:07:06;26.20;;;12.35;;
68229;SDS011;55048;52.220;5.160;2023-05-10T07:09:33;25.70;;;12.80;;
68229;SDS011;55048;52.220;5.160;2023-05-10T07:11:59;23.65;;;13.25;;
68229;SDS011;55048;52.220;5.160;2023-05-10T07:14:24;23.55;;;12.63;;
68229;SDS011;55048;52.220;5.160;2023-05-10T07:16:50;17.90;;;12.00;;
68229;SDS011;55048;52.220;5.160;2023-05-10T07:19:15;23.67;;;13.00;;
68229;SDS011;55048;52.220;5.160;2023-05-10T07:21:41;24.95;;;12.98;;
68229;SDS011;55048;52.220;5.160;2023-05-10T07:24:08;23.90;;;12.80;;
68229;SDS011;55048;52.220;5.160;2023-05-10T07:26:33;19.40;;;12.48;;
68229;SDS011;55048;52.220;5.160;2023-05-10T07:28:59;23.25;;;12.82;;
68229;SDS011;55048;52.220;5.160;2023-05-10T07:31:24;18.23;;;11.43;;
68229;SDS011;55048;52.220;5.160;2023-05-10T07:33:50;20.13;;;10.98;;
68229;SDS011;55048;52.220;5.160;2023-05-10T07:36:15;25.40;;;11.45;;
68229;SDS011;55048;52.220;5.160;2023-05-10T07:38:41;18.20;;;12.05;;
68229;SDS011;55048;52.220;5.160;2023-05-10T07:41:06;18.90;;;10.73;;
68229;SDS011;55048;52.220;5.160;2023-05-10T07:43:31;20.27;;;11.70;;
68229;SDS011;55048;52.220;5.160;2023-05-10T07:45:57;21.20;;;11.57;;
68229;SDS011;55048;52.220;5.160;2023-05-10T07:48:24;22.92;;;12.55;;
68229;SDS011;55048;52.220;5.160;2023-05-10T07:50:50;18.83;;;11.35;;
68229;SDS011;55048;52.220;5.160;2023-05-10T07:53:15;20.40;;;10.82;;
68229;SDS011;55048;52.220;5.160;2023-05-10T07:55:41;20.50;;;13.07;;
68229;SDS011;55048;52.220;5.160;2023-05-10T07:58:06;19.40;;;11.55;;
68229;SDS011;55048;52.220;5.160;2023-05-10T08:00:32;22.20;;;11.85;;
68229;SDS011;55048;52.220;5.160;2023-05-10T08:02:57;19.65;;;11.40;;
68229;SDS011;55048;52.220;5.160;2023-05-10T08:05:23;17.08;;;11.82;;
68229;SDS011;55048;52.220;5.160;2023-05-10T08:07:48;17.38;;;11.02;;
68229;SDS011;55048;52.220;5.160;2023-05-10T08:10:13;18.45;;;10.90;;
68229;SDS011;55048;52.220;5.160;2023-05-10T08:12:39;20.88;;;12.02;;
68229;SDS011;55048;52.220;5.160;2023-05-10T08:15:04;21.40;;;11.15;;
68229;SDS011;55048;52.220;5.160;2023-05-10T08:17:31;18.55;;;11.00;;
68229;SDS011;55048;52.220;5.160;2023-05-10T08:19:57;16.48;;;10.60;;
68229;SDS011;55048;52.220;5.160;2023-05-10T08:22:22;18.95;;;10.77;;
68229;SDS011;55048;52.220;5.160;2023-05-10T08:24:48;14.60;;;9.70;;
68229;SDS011;55048;52.220;5.160;2023-05-10T08:27:13;16.77;;;10.05;;
68229;SDS011;55048;52.220;5.160;2023-05-10T08:29:38;15.45;;;9.00;;
68229;SDS011;55048;52.220;5.160;2023-05-10T08:32:04;15.65;;;9.20;;
68229;SDS011;55048;52.220;5.160;2023-05-10T08:34:29;14.10;;;9.18;;
68229;SDS011;55048;52.220;5.160;2023-05-10T08:36:56;12.73;;;8.15;;
68229;SDS011;55048;52.220;5.160;2023-05-10T08:39:21;16.15;;;8.32;;
68229;SDS011;55048;52.220;5.160;2023-05-10T08:41:48;17.25;;;8.32;;
68229;SDS011;55048;52.220;5.160;2023-05-10T08:44:16;9.48;;;7.03;;
68229;SDS011;55048;52.220;5.160;2023-05-10T08:46:44;10.40;;;7.00;;
68229;SDS011;55048;52.220;5.160;2023-05-10T08:49:12;12.43;;;6.93;;
68229;SDS011;55048;52.220;5.160;2023-05-10T08:51:43;9.02;;;6.72;;
68229;SDS011;55048;52.220;5.160;2023-05-10T08:54:12;11.48;;;7.32;;
68229;SDS011;55048;52.220;5.160;2023-05-10T08:56:38;12.57;;;7.00;;
68229;SDS011;55048;52.220;5.160;2023-05-10T08:59:04;12.05;;;7.50;;
68229;SDS011;55048;52.220;5.160;2023-05-10T09:01:29;15.73;;;7.18;;
68229;SDS011;55048;52.220;5.160;2023-05-10T09:03:56;9.90;;;7.22;;
68229;SDS011;55048;52.220;5.160;2023-05-10T09:06:22;10.25;;;7.55;;
68229;SDS011;55048;52.220;5.160;2023-05-10T09:08:49;15.82;;;7.60;;
68229;SDS011;55048;52.220;5.160;2023-05-10T09:11:15;11.18;;;7.60;;
68229;SDS011;55048;52.220;5.160;2023-05-10T09:13:41;11.52;;;7.78;;
68229;SDS011;55048;52.220;5.160;2023-05-10T09:16:08;11.13;;;7.70;;
68229;SDS011;55048;52.220;5.160;2023-05-10T09:18:34;15.38;;;7.90;;
68229;SDS011;55048;52.220;5.160;2023-05-10T09:20:59;12.25;;;7.53;;
68229;SDS011;55048;52.220;5.160;2023-05-10T09:23:24;10.77;;;7.20;;
68229;SDS011;55048;52.220;5.160;2023-05-10T09:26:05;9.93;;;6.30;;
68229;SDS011;55048;52.220;5.160;2023-05-10T09:28:31;9.13;;;5.90;;
68229;SDS011;55048;52.220;5.160;2023-05-10T09:30:57;8.95;;;5.85;;
68229;SDS011;55048;52.220;5.160;2023-05-10T09:33:23;8.98;;;6.00;;
68229;SDS011;55048;52.220;5.160;2023-05-10T09:35:49;7.07;;;5.00;;
68229;SDS011;55048;52.220;5.160;2023-05-10T09:38:16;8.13;;;5.30;;
68229;SDS011;55048;52.220;5.160;2023-05-10T09:40:42;5.43;;;3.95;;
68229;SDS011;55048;52.220;5.160;2023-05-10T09:43:20;5.43;;;4.15;;
68229;SDS011;55048;52.220;5.160;2023-05-10T09:45:45;7.47;;;4.15;;
68229;SDS011;55048;52.220;5.160;2023-05-10T09:48:14;8.07;;;3.92;;
68229;SDS011;55048;52.220;5.160;2023-05-10T09:50:40;6.45;;;4.57;;
68229;SDS011;55048;52.220;5.160;2023-05-10T09:53:06;6.13;;;4.15;;
68229;SDS011;55048;52.220;5.160;2023-05-10T09:58:09;7.57;;;4.53;;
68229;SDS011;55048;52.220;5.160;2023-05-10T10:00:36;5.20;;;4.43;;
68229;SDS011;55048;52.220;5.160;2023-05-10T10:03:03;5.82;;;3.83;;
68229;SDS011;55048;52.220;5.160;2023-05-10T10:05:30;7.15;;;4.20;;
68229;SDS011;55048;52.220;5.160;2023-05-10T10:07:59;5.20;;;2.92;;
68229;SDS011;55048;52.220;5.160;2023-05-10T10:10:26;4.75;;;3.33;;
68229;SDS011;55048;52.220;5.160;2023-05-10T10:12:52;4.90;;;3.17;;
68229;SDS011;55048;52.220;5.160;2023-05-10T10:15:18;6.40;;;2.80;;
68229;SDS011;55048;52.220;5.160;2023-05-10T10:17:45;5.03;;;2.92;;
68229;SDS011;55048;52.220;5.160;2023-05-10T10:20:13;5.80;;;2.80;;
68229;SDS011;55048;52.220;5.160;2023-05-10T10:22:39;4.10;;;2.78;;
68229;SDS011;55048;52.220;5.160;2023-05-10T10:25:05;5.00;;;2.80;;
68229;SDS011;55048;52.220;5.160;2023-05-10T10:35:42;3.28;;;2.00;;
68229;SDS011;55048;52.220;5.160;2023-05-10T10:38:10;4.30;;;2.13;;
68229;SDS011;55048;52.220;5.160;2023-05-10T10:40:38;7.00;;;1.77;;
68229;SDS011;55048;52.220;5.160;2023-05-10T10:48:38;5.63;;;1.90;;
68229;SDS011;55048;52.220;5.160;2023-05-10T10:51:04;4.32;;;1.58;;
68229;SDS011;55048;52.220;5.160;2023-05-10T10:53:29;3.28;;;1.30;;
68229;SDS011;55048;52.220;5.160;2023-05-10T10:56:05;5.43;;;1.95;;
68229;SDS011;55048;52.220;5.160;2023-05-10T10:58:35;4.57;;;1.67;;
68229;SDS011;55048;52.220;5.160;2023-05-10T11:01:09;3.30;;;1.80;;
68229;SDS011;55048;52.220;5.160;2023-05-10T11:03:40;4.78;;;1.73;;
68229;SDS011;55048;52.220;5.160;2023-05-10T11:06:05;6.28;;;1.60;;
68229;SDS011;55048;52.220;5.160;2023-05-10T11:08:32;4.80;;;1.83;;
68229;SDS011;55048;52.220;5.160;2023-05-10T11:13:31;6.65;;;1.85;;
68229;SDS011;55048;52.220;5.160;2023-05-10T11:16:12;6.43;;;2.25;;
68229;SDS011;55048;52.220;5.160;2023-05-10T11:18:40;5.45;;;2.00;;
68229;SDS011;55048;52.220;5.160;2023-05-10T11:21:07;6.07;;;2.50;;
68229;SDS011;55048;52.220;5.160;2023-05-10T11:26:07;4.65;;;2.28;;
68229;SDS011;55048;52.220;5.160;2023-05-10T11:28:43;4.00;;;1.90;;
68229;SDS011;55048;52.220;5.160;2023-05-10T11:31:18;5.72;;;1.80;;
68229;SDS011;55048;52.220;5.160;2023-05-10T11:36:11;5.13;;;1.58;;
68229;SDS011;55048;52.220;5.160;2023-05-10T11:38:41;5.07;;;1.70;;
68229;SDS011;55048;52.220;5.160;2023-05-10T11:41:10;3.85;;;1.73;;
68229;SDS011;55048;52.220;5.160;2023-05-10T11:43:39;3.08;;;1.27;;
68229;SDS011;55048;52.220;5.160;2023-05-10T11:46:06;4.70;;;1.58;;
68229;SDS011;55048;52.220;5.160;2023-05-10T11:48:32;3.17;;;1.10;;
68229;SDS011;55048;52.220;5.160;2023-05-10T11:50:58;6.50;;;1.95;;
68229;SDS011;55048;52.220;5.160;2023-05-10T11:53:25;8.73;;;4.15;;
68229;SDS011;55048;52.220;5.160;2023-05-10T11:55:52;4.43;;;2.10;;
68229;SDS011;55048;52.220;5.160;2023-05-10T11:58:18;4.65;;;1.80;;
68229;SDS011;55048;52.220;5.160;2023-05-10T12:00:44;3.42;;;1.50;;
68229;SDS011;55048;52.220;5.160;2023-05-10T12:03:10;4.88;;;1.92;;
68229;SDS011;55048;52.220;5.160;2023-05-10T12:05:36;3.55;;;2.00;;
68229;SDS011;55048;52.220;5.160;2023-05-10T12:08:12;4.00;;;1.92;;
68229;SDS011;55048;52.220;5.160;2023-05-10T12:10:40;4.57;;;1.90;;
68229;SDS011;55048;52.220;5.160;2023-05-10T12:13:13;2.70;;;1.83;;
68229;SDS011;55048;52.220;5.160;2023-05-10T12:15:40;4.13;;;2.00;;
68229;SDS011;55048;52.220;5.160;2023-05-10T12:18:08;3.15;;;2.00;;
68229;SDS011;55048;52.220;5.160;2023-05-10T12:20:35;6.05;;;1.70;;
68229;SDS011;55048;52.220;5.160;2023-05-10T12:23:01;3.88;;;1.60;;
68229;SDS011;55048;52.220;5.160;2023-05-10T12:25:29;2.83;;;1.77;;
68229;SDS011;55048;52.220;5.160;2023-05-10T12:27:57;5.63;;;2.33;;
68229;SDS011;55048;52.220;5.160;2023-05-10T12:30:23;2.33;;;1.70;;
68229;SDS011;55048;52.220;5.160;2023-05-10T12:32:50;6.82;;;2.20;;
68229;SDS011;55048;52.220;5.160;2023-05-10T12:35:16;2.88;;;2.17;;
68229;SDS011;55048;52.220;5.160;2023-05-10T12:37:46;4.88;;;2.60;;
68229;SDS011;55048;52.220;5.160;2023-05-10T12:40:12;3.00;;;2.55;;
68229;SDS011;55048;52.220;5.160;2023-05-10T12:42:38;3.90;;;2.30;;
68229;SDS011;55048;52.220;5.160;2023-05-10T12:45:05;4.00;;;2.22;;
68229;SDS011;55048;52.220;5.160;2023-05-10T12:47:32;5.60;;;2.00;;
68229;SDS011;55048;52.220;5.160;2023-05-10T12:49:58;5.78;;;3.55;;
68229;SDS011;55048;52.220;5.160;2023-05-10T12:52:25;4.40;;;3.33;;
68229;SDS011;55048;52.220;5.160;2023-05-10T12:54:51;6.63;;;4.72;;
68229;SDS011;55048;52.220;5.160;2023-05-10T12:57:18;7.25;;;5.18;;
68229;SDS011;55048;52.220;5.160;2023-05-10T12:59:43;8.77;;;5.75;;
68229;SDS011;55048;52.220;5.160;2023-05-10T13:02:09;11.45;;;5.75;;
68229;SDS011;55048;52.220;5.160;2023-05-10T13:04:35;10.90;;;6.90;;
68229;SDS011;55048;52.220;5.160;2023-05-10T13:07:02;12.10;;;7.40;;
68229;SDS011;55048;52.220;5.160;2023-05-10T13:09:27;13.50;;;8.20;;
68229;SDS011;55048;52.220;5.160;2023-05-10T13:11:56;16.13;;;8.48;;
68229;SDS011;55048;52.220;5.160;2023-05-10T13:14:21;16.05;;;8.77;;
68229;SDS011;55048;52.220;5.160;2023-05-10T13:16:47;18.23;;;8.88;;
68229;SDS011;55048;52.220;5.160;2023-05-10T13:19:13;18.05;;;7.85;;
68229;SDS011;55048;52.220;5.160;2023-05-10T13:21:39;19.55;;;8.88;;
68229;SDS011;55048;52.220;5.160;2023-05-10T13:24:06;18.30;;;8.60;;
68229;SDS011;55048;52.220;5.160;2023-05-10T13:26:32;17.48;;;8.95;;
68229;SDS011;55048;52.220;5.160;2023-05-10T13:28:57;15.98;;;8.63;;
68229;SDS011;55048;52.220;5.160;2023-05-10T13:31:23;20.35;;;8.80;;
68229;SDS011;55048;52.220;5.160;2023-05-10T13:33:48;15.05;;;8.15;;
68229;SDS011;55048;52.220;5.160;2023-05-10T13:36:14;13.93;;;7.72;;
68229;SDS011;55048;52.220;5.160;2023-05-10T13:38:39;15.93;;;7.45;;
68229;SDS011;55048;52.220;5.160;2023-05-10T13:41:05;17.73;;;6.57;;
68229;SDS011;55048;52.220;5.160;2023-05-10T13:43:31;14.02;;;6.90;;
68229;SDS011;55048;52.220;5.160;2023-05-10T13:45:57;11.15;;;5.75;;
68229;SDS011;55048;52.220;5.160;2023-05-10T13:48:22;11.38;;;5.13;;
68229;SDS011;55048;52.220;5.160;2023-05-10T13:50:48;10.65;;;5.93;;
68229;SDS011;55048;52.220;5.160;2023-05-10T13:53:13;12.57;;;5.38;;
68229;SDS011;55048;52.220;5.160;2023-05-10T13:55:39;8.05;;;4.60;;
68229;SDS011;55048;52.220;5.160;2023-05-10T13:58:05;9.73;;;4.78;;
68229;SDS011;55048;52.220;5.160;2023-05-10T14:00:30;11.50;;;4.78;;
68229;SDS011;55048;52.220;5.160;2023-05-10T14:02:56;9.15;;;5.45;;
68229;SDS011;55048;52.220;5.160;2023-05-10T14:05:21;10.93;;;4.85;;
68229;SDS011;55048;52.220;5.160;2023-05-10T14:07:48;9.20;;;4.57;;
68229;SDS011;55048;52.220;5.160;2023-05-10T14:10:13;7.93;;;4.03;;
68229;SDS011;55048;52.220;5.160;2023-05-10T14:12:39;10.25;;;4.53;;
68229;SDS011;55048;52.220;5.160;2023-05-10T14:15:05;12.82;;;5.45;;
68229;SDS011;55048;52.220;5.160;2023-05-10T14:17:31;13.95;;;5.50;;
68229;SDS011;55048;52.220;5.160;2023-05-10T14:19:57;9.38;;;5.03;;
68229;SDS011;55048;52.220;5.160;2023-05-10T14:22:22;9.90;;;4.70;;
68229;SDS011;55048;52.220;5.160;2023-05-10T14:24:48;8.45;;;4.80;;
68229;SDS011;55048;52.220;5.160;2023-05-10T14:27:13;11.25;;;4.10;;
68229;SDS011;55048;52.220;5.160;2023-05-10T14:29:39;7.18;;;4.00;;
68229;SDS011;55048;52.220;5.160;2023-05-10T14:32:04;7.03;;;4.13;;
68229;SDS011;55048;52.220;5.160;2023-05-10T14:34:30;6.40;;;3.65;;
68229;SDS011;55048;52.220;5.160;2023-05-10T14:36:55;11.82;;;4.35;;
68229;SDS011;55048;52.220;5.160;2023-05-10T14:39:21;7.22;;;3.45;;
68229;SDS011;55048;52.220;5.160;2023-05-10T14:41:48;7.43;;;4.07;;
68229;SDS011;55048;52.220;5.160;2023-05-10T14:44:13;7.38;;;4.63;;
68229;SDS011;55048;52.220;5.160;2023-05-10T14:46:40;7.22;;;4.43;;
68229;SDS011;55048;52.220;5.160;2023-05-10T14:49:07;7.07;;;4.18;;
68229;SDS011;55048;52.220;5.160;2023-05-10T14:51:32;12.43;;;5.00;;
68229;SDS011;55048;52.220;5.160;2023-05-10T14:53:58;8.93;;;4.43;;
68229;SDS011;55048;52.220;5.160;2023-05-10T14:56:24;8.40;;;4.65;;
68229;SDS011;55048;52.220;5.160;2023-05-10T14:58:51;9.40;;;5.38;;
68229;SDS011;55048;52.220;5.160;2023-05-10T15:01:16;10.85;;;5.47;;
68229;SDS011;55048;52.220;5.160;2023-05-10T15:03:42;13.23;;;5.25;;
68229;SDS011;55048;52.220;5.160;2023-05-10T15:06:08;11.25;;;5.15;;
68229;SDS011;55048;52.220;5.160;2023-05-10T15:08:34;11.88;;;5.25;;